createdAt,value
2023-02-27T00:02:14.612Z,18.82
2023-02-27T00:04:43.995Z,18.71
2023-02-27T00:07:12.260Z,18.65
2023-02-27T00:09:44.328Z,18.86
2023-02-27T00:12:15.520Z,18.98
2023-02-27T00:14:43.920Z,18.91
2023-02-27T00:17:16.959Z,18.68
2023-02-27T00:19:52.823Z,18.65
2023-02-27T00:22:20.859Z,18.74
2023-02-27T00:24:59.797Z,18.73
2023-02-27T00:27:27.950Z,18.33
2023-02-27T00:29:56.449Z,18.31
2023-02-27T00:32:25.064Z,18.37
2023-02-27T00:34:53.508Z,18.40
2023-02-27T00:37:21.543Z,18.34
2023-02-27T00:39:50.495Z,18.36
2023-02-27T00:42:18.537Z,18.54
2023-02-27T00:44:47.904Z,18.23
2023-02-27T00:47:16.011Z,18.07
2023-02-27T00:49:46.848Z,18.07
2023-02-27T00:52:14.914Z,18.07
2023-02-27T00:54:43.026Z,18.18
2023-02-27T00:57:11.078Z,18.34
2023-02-27T00:59:39.168Z,18.51
2023-02-27T01:02:09.048Z,18.26
2023-02-27T01:04:37.413Z,18.09
2023-02-27T01:07:05.615Z,18.01
2023-02-27T01:09:33.774Z,18.06
2023-02-27T01:12:01.912Z,17.97
2023-02-27T01:14:31.000Z,18.02
2023-02-27T01:16:59.082Z,17.95
2023-02-27T01:19:27.173Z,17.72
2023-02-27T01:21:56.060Z,17.55
2023-02-27T01:24:26.696Z,17.04
2023-02-27T01:26:54.887Z,17.29
2023-02-27T01:29:22.978Z,17.56
2023-02-27T01:31:51.345Z,17.48
2023-02-27T01:34:19.619Z,17.53
2023-02-27T01:36:48.503Z,17.64
2023-02-27T01:39:17.805Z,17.97
2023-02-27T01:41:45.996Z,17.89
2023-02-27T01:44:19.465Z,17.91
2023-02-27T01:50:06.930Z,11.62
2023-02-27T01:52:37.039Z,13.47
2023-02-27T01:55:08.494Z,13.81
2023-02-27T01:57:37.459Z,14.05
2023-02-27T02:00:06.299Z,14.04
2023-02-27T02:02:48.236Z,14.20
2023-02-27T02:05:16.236Z,14.36
2023-02-27T02:07:44.483Z,14.47
2023-02-27T02:10:13.096Z,14.70
2023-02-27T02:12:41.273Z,15.05
2023-02-27T02:15:13.590Z,15.24
2023-02-27T02:18:20.420Z,15.32
2023-02-27T02:21:16.045Z,15.43
2023-02-27T02:24:03.783Z,15.30
2023-02-27T02:26:36.161Z,15.43
2023-02-27T02:29:22.765Z,15.27
2023-02-27T02:32:05.937Z,15.24
2023-02-27T02:35:11.526Z,15.29
2023-02-27T02:38:17.281Z,15.60
2023-02-27T02:40:54.353Z,15.59
2023-02-27T02:43:26.218Z,15.47
2023-02-27T02:46:10.221Z,15.49
2023-02-27T02:48:50.338Z,15.65
2023-02-27T02:51:20.409Z,15.81
2023-02-27T02:53:52.153Z,16.07
2023-02-27T02:56:51.067Z,16.04
2023-02-27T02:59:40.010Z,16.04
2023-02-27T03:02:14.787Z,15.96
2023-02-27T03:04:53.243Z,15.90
2023-02-27T03:07:44.457Z,15.48
2023-02-27T03:10:43.155Z,15.35
2023-02-27T03:13:21.490Z,15.30
2023-02-27T03:15:59.608Z,15.37
2023-02-27T03:18:31.785Z,15.45
2023-02-27T03:21:16.145Z,15.37
2023-02-27T03:23:45.737Z,15.35
2023-02-27T03:26:17.424Z,15.16
2023-02-27T03:28:57.888Z,14.99
2023-02-27T03:31:31.884Z,15.16
2023-02-27T03:34:09.058Z,15.45
2023-02-27T03:36:45.014Z,15.76
2023-02-27T03:39:32.746Z,15.55
2023-02-27T03:42:04.413Z,15.58
2023-02-27T03:45:24.820Z,15.81
2023-02-27T03:47:53.073Z,15.90
2023-02-27T03:50:22.011Z,16.07
2023-02-27T03:52:50.654Z,15.94
2023-02-27T03:55:23.739Z,16.09
2023-02-27T03:57:52.147Z,15.74
2023-02-27T04:00:21.980Z,15.99
2023-02-27T04:02:54.820Z,16.07
2023-02-27T04:05:25.339Z,16.36
2023-02-27T04:08:05.162Z,16.71
2023-02-27T04:10:43.135Z,16.70
2023-02-27T04:13:23.190Z,16.52
2023-02-27T04:16:22.704Z,16.42
2023-02-27T04:18:56.950Z,16.40
2023-02-27T04:21:29.915Z,16.55
2023-02-27T04:24:02.310Z,16.51
2023-02-27T04:26:47.293Z,16.64
2023-02-27T04:29:21.561Z,16.54
2023-02-27T04:31:51.651Z,16.22
2023-02-27T04:34:23.322Z,16.00
2023-02-27T04:37:11.943Z,16.29
2023-02-27T04:39:53.405Z,16.66
2023-02-27T04:42:24.288Z,16.17
2023-02-27T04:45:00.619Z,16.52
2023-02-27T04:47:30.917Z,16.32
2023-02-27T04:50:01.374Z,16.18
2023-02-27T04:52:51.888Z,16.01
2023-02-27T04:55:36.201Z,16.06
2023-02-27T04:58:11.665Z,16.38
2023-02-27T05:00:41.346Z,16.14
2023-02-27T05:03:16.835Z,16.47
2023-02-27T05:05:45.112Z,16.48
2023-02-27T05:08:28.396Z,16.61
2023-02-27T05:10:58.159Z,16.91
2023-02-27T05:13:44.142Z,16.77
2023-02-27T05:16:23.148Z,16.71
2023-02-27T05:18:56.301Z,16.49
2023-02-27T05:21:32.345Z,16.50
2023-02-27T05:24:10.024Z,16.46
2023-02-27T05:26:45.465Z,16.53
2023-02-27T05:29:25.051Z,16.83
2023-02-27T05:32:17.897Z,16.91
2023-02-27T05:35:08.979Z,17.06
2023-02-27T05:37:40.005Z,16.89
2023-02-27T05:40:09.238Z,16.61
2023-02-27T05:42:41.016Z,16.76
2023-02-27T05:45:15.901Z,17.10
2023-02-27T05:47:46.618Z,16.97
2023-02-27T05:50:23.280Z,16.87
2023-02-27T05:52:52.206Z,17.25
2023-02-27T05:55:42.461Z,17.08
2023-02-27T05:58:21.964Z,17.05
2023-02-27T06:00:58.696Z,16.91
2023-02-27T06:03:28.491Z,17.13
2023-02-27T06:05:58.101Z,17.22
2023-02-27T06:08:26.308Z,17.35
2023-02-27T06:10:55.497Z,17.26
2023-02-27T06:13:26.511Z,17.07
2023-02-27T06:15:54.554Z,17.00
2023-02-27T06:18:23.617Z,17.19
2023-02-27T06:20:52.015Z,17.25
2023-02-27T06:23:25.377Z,17.66
2023-02-27T06:25:54.020Z,17.85
2023-02-27T06:28:22.086Z,17.70
2023-02-27T06:30:55.113Z,17.47
2023-02-27T06:33:28.983Z,17.58
2023-02-27T06:35:58.955Z,17.56
2023-02-27T06:38:27.397Z,17.44
2023-02-27T06:40:57.121Z,17.50
2023-02-27T06:43:25.888Z,17.72
2023-02-27T06:45:56.046Z,17.86
2023-02-27T06:48:24.665Z,17.75
2023-02-27T06:50:53.816Z,17.94
2023-02-27T06:53:23.082Z,17.90
2023-02-27T06:55:51.665Z,17.74
2023-02-27T06:58:21.213Z,17.62
2023-02-27T07:00:49.573Z,17.76
2023-02-27T07:03:17.967Z,17.25
2023-02-27T07:05:50.022Z,17.23
2023-02-27T07:08:18.295Z,17.29
2023-02-27T07:10:47.400Z,17.59
2023-02-27T07:13:19.653Z,17.30
2023-02-27T07:15:49.072Z,17.30
2023-02-27T07:18:17.539Z,17.30
2023-02-27T07:20:45.645Z,17.49
2023-02-27T07:23:14.809Z,17.51
2023-02-27T07:25:43.070Z,17.51
2023-02-27T07:28:11.703Z,17.55
2023-02-27T07:30:40.256Z,17.56
2023-02-27T07:33:08.801Z,17.73
2023-02-27T07:35:36.953Z,17.76
2023-02-27T07:38:04.880Z,17.60
2023-02-27T07:40:33.363Z,17.62
2023-02-27T07:43:06.861Z,17.72
2023-02-27T07:45:35.666Z,17.69
2023-02-27T07:48:03.875Z,17.49
2023-02-27T07:50:32.306Z,17.13
2023-02-27T07:53:00.628Z,17.23
2023-02-27T07:55:28.820Z,17.71
2023-02-27T07:58:00.074Z,17.76
2023-02-27T08:00:29.709Z,18.01
2023-02-27T08:02:57.892Z,17.75
2023-02-27T08:05:29.001Z,17.30
2023-02-27T08:07:57.298Z,17.38
2023-02-27T08:10:27.747Z,17.52
2023-02-27T08:12:56.448Z,17.62
2023-02-27T08:15:24.842Z,17.95
2023-02-27T08:17:53.160Z,18.06
2023-02-27T08:20:23.031Z,17.88
2023-02-27T08:22:51.433Z,17.90
2023-02-27T08:25:21.593Z,18.44
2023-02-27T08:27:50.006Z,18.61
2023-02-27T08:30:18.727Z,18.92
2023-02-27T08:32:47.152Z,19.23
2023-02-27T08:35:15.648Z,19.24
2023-02-27T08:37:44.067Z,19.45
2023-02-27T08:40:12.679Z,18.97
2023-02-27T08:42:40.865Z,18.99
2023-02-27T08:45:11.557Z,19.36
2023-02-27T08:47:39.550Z,19.55
2023-02-27T08:50:08.975Z,19.35
2023-02-27T08:52:37.327Z,19.16
2023-02-27T08:55:05.902Z,19.21
2023-02-27T08:57:34.410Z,19.37
2023-02-27T09:00:06.140Z,19.52
2023-02-27T09:02:36.317Z,19.44
2023-02-27T09:05:05.687Z,19.78
2023-02-27T09:07:34.689Z,19.98
2023-02-27T09:10:03.114Z,19.73
2023-02-27T09:12:37.639Z,19.49
2023-02-27T09:15:11.732Z,19.42
2023-02-27T09:17:42.167Z,19.40
2023-02-27T09:20:12.869Z,19.68
2023-02-27T09:22:41.579Z,20.23
2023-02-27T09:25:12.240Z,20.38
2023-02-27T09:27:41.833Z,20.60
2023-02-27T09:30:11.282Z,20.58
2023-02-27T09:32:39.843Z,20.57
2023-02-27T09:35:09.514Z,20.30
2023-02-27T09:37:37.799Z,20.47
2023-02-27T09:40:07.828Z,20.14
2023-02-27T09:42:38.490Z,20.14
2023-02-27T09:45:07.609Z,20.46
2023-02-27T09:47:38.328Z,20.37
2023-02-27T09:50:17.189Z,20.78
2023-02-27T09:52:45.762Z,21.13
2023-02-27T09:55:19.343Z,21.05
2023-02-27T09:57:56.519Z,20.95
2023-02-27T10:00:48.313Z,21.18
2023-02-27T10:03:34.655Z,21.04
2023-02-27T10:06:12.611Z,21.05
2023-02-27T10:08:56.184Z,21.26
2023-02-27T10:11:30.977Z,20.81
2023-02-27T10:14:37.853Z,20.88
2023-02-27T10:17:11.824Z,20.34
2023-02-27T10:19:40.456Z,19.65
2023-02-27T10:22:11.946Z,19.61
2023-02-27T10:24:46.869Z,19.74
2023-02-27T10:27:17.815Z,19.46
2023-02-27T10:29:45.647Z,19.40
2023-02-27T10:32:17.219Z,19.53
2023-02-27T10:34:55.289Z,19.19
2023-02-27T10:37:24.359Z,19.23
2023-02-27T10:39:57.013Z,18.92
2023-02-27T10:42:28.238Z,18.98
2023-02-27T10:44:56.405Z,18.61
2023-02-27T10:47:25.223Z,18.71
2023-02-27T10:49:53.903Z,19.01
2023-02-27T10:52:22.088Z,18.71
2023-02-27T10:54:50.244Z,18.31
2023-02-27T10:57:26.449Z,18.58
2023-02-27T10:59:59.278Z,18.34
2023-02-27T11:02:36.183Z,18.68
2023-02-27T11:05:28.417Z,18.70
2023-02-27T11:07:57.634Z,18.54
2023-02-27T11:10:28.849Z,18.77
2023-02-27T11:13:00.813Z,19.36
2023-02-27T11:15:34.812Z,19.47
2023-02-27T11:18:28.904Z,19.23
2023-02-27T11:21:15.601Z,18.85
2023-02-27T11:23:57.754Z,19.37
2023-02-27T11:26:30.053Z,19.74
2023-02-27T11:29:18.333Z,19.52
2023-02-27T11:32:03.725Z,19.33
2023-02-27T11:34:38.790Z,19.78
2023-02-27T11:37:24.476Z,19.74
2023-02-27T11:40:12.857Z,19.83
2023-02-27T11:43:05.329Z,19.13
2023-02-27T11:46:04.153Z,19.54
2023-02-27T11:48:38.619Z,19.69
2023-02-27T11:51:44.596Z,19.39
2023-02-27T11:54:18.872Z,19.63
2023-02-27T11:57:09.192Z,19.75
2023-02-27T11:59:52.865Z,19.56
2023-02-27T12:02:24.426Z,19.49
2023-02-27T12:05:02.412Z,19.97
2023-02-27T12:07:54.415Z,20.01
2023-02-27T12:10:26.798Z,20.03
2023-02-27T12:13:15.544Z,19.67
2023-02-27T12:16:00.720Z,19.16
2023-02-27T12:18:38.214Z,18.90
2023-02-27T12:21:07.674Z,18.83
2023-02-27T12:23:41.144Z,18.85
2023-02-27T12:26:45.691Z,18.85
2023-02-27T12:29:25.805Z,18.84
2023-02-27T12:32:09.036Z,18.86
2023-02-27T12:34:46.842Z,18.98
2023-02-27T12:37:29.117Z,19.01
2023-02-27T12:39:59.566Z,18.81
2023-02-27T12:42:52.861Z,18.96
2023-02-27T12:45:51.924Z,19.17
2023-02-27T12:49:08.960Z,19.48
2023-02-27T12:52:04.342Z,19.46
2023-02-27T12:54:42.193Z,19.64
2023-02-27T12:57:16.157Z,19.67
2023-02-27T12:59:59.153Z,19.31
2023-02-27T13:03:02.911Z,19.49
2023-02-27T13:06:01.702Z,19.58
2023-02-27T13:08:47.295Z,19.46
2023-02-27T13:11:34.099Z,18.74
2023-02-27T13:14:04.231Z,18.73
2023-02-27T13:16:36.826Z,19.33
2023-02-27T13:19:19.175Z,19.06
2023-02-27T13:21:56.086Z,18.94
2023-02-27T13:24:31.586Z,19.08
2023-02-27T13:27:19.976Z,19.23
2023-02-27T13:30:03.823Z,19.52
2023-02-27T13:32:44.925Z,19.71
2023-02-27T13:35:33.175Z,19.22
2023-02-27T13:38:42.498Z,19.05
2023-02-27T13:41:20.330Z,19.22
2023-02-27T13:43:53.237Z,18.96
2023-02-27T13:46:25.152Z,18.83
2023-02-27T13:49:06.022Z,18.97
2023-02-27T13:51:43.536Z,18.85
2023-02-27T13:54:14.542Z,18.39
2023-02-27T13:56:51.229Z,18.16
2023-02-27T13:59:41.975Z,18.03
2023-02-27T14:02:33.384Z,17.93
2023-02-27T14:07:09.855Z,14.07
2023-02-27T14:09:41.272Z,16.26
2023-02-27T14:12:46.750Z,16.68
2023-02-27T14:15:21.947Z,16.70
2023-02-27T14:18:11.424Z,17.01
2023-02-27T14:20:42.174Z,17.28
2023-02-27T14:23:17.320Z,17.39
2023-02-27T14:25:45.994Z,16.92
2023-02-27T14:29:07.785Z,16.90
2023-02-27T14:31:37.745Z,17.56
2023-02-27T14:34:06.794Z,17.71
2023-02-27T14:36:40.877Z,17.70
2023-02-27T14:39:21.173Z,17.73
2023-02-27T14:42:11.021Z,17.90
2023-02-27T14:44:43.743Z,17.83
2023-02-27T14:47:28.285Z,17.40
2023-02-27T14:49:56.307Z,17.38
2023-02-27T14:52:25.265Z,17.55
2023-02-27T14:54:53.833Z,17.72
2023-02-27T14:57:24.287Z,17.91
2023-02-27T14:59:58.265Z,18.16
2023-02-27T15:02:28.013Z,18.27
2023-02-27T15:05:13.819Z,18.30
2023-02-27T15:07:44.716Z,17.87
2023-02-27T15:10:30.939Z,17.82
2023-02-27T15:12:59.789Z,17.55
2023-02-27T15:15:28.422Z,17.31
2023-02-27T15:17:56.564Z,17.65
2023-02-27T15:20:35.049Z,17.63
2023-02-27T15:23:21.192Z,17.69
2023-02-27T15:25:49.333Z,17.87
2023-02-27T15:28:23.815Z,17.87
2023-02-27T15:30:52.955Z,17.69
2023-02-27T15:33:27.927Z,17.34
2023-02-27T15:35:56.378Z,17.58
2023-02-27T15:38:34.797Z,17.18
2023-02-27T15:41:03.773Z,17.03
2023-02-27T15:43:31.847Z,17.34
2023-02-27T15:46:00.488Z,17.37
2023-02-27T15:48:29.992Z,17.16
2023-02-27T15:50:59.262Z,16.98
2023-02-27T15:53:28.544Z,16.73
2023-02-27T15:55:58.423Z,16.48
2023-02-27T15:58:31.122Z,16.49
2023-02-27T16:01:05.553Z,16.44
2023-02-27T16:03:43.464Z,16.50
2023-02-27T16:06:18.917Z,16.71
2023-02-27T16:08:53.507Z,16.74
2023-02-27T16:11:25.881Z,16.88
2023-02-27T16:13:55.431Z,16.89
2023-02-27T16:16:37.747Z,17.17
2023-02-27T16:19:16.836Z,17.41
2023-02-27T16:22:11.925Z,17.07
2023-02-27T16:24:40.716Z,17.19
2023-02-27T16:27:26.197Z,17.07
2023-02-27T16:29:55.679Z,16.90
2023-02-27T16:32:35.045Z,16.77
2023-02-27T16:35:08.882Z,17.25
2023-02-27T16:37:38.974Z,17.22
2023-02-27T16:40:11.273Z,17.21
2023-02-27T16:42:40.745Z,16.95
2023-02-27T16:45:14.979Z,17.31
2023-02-27T16:47:44.112Z,17.40
2023-02-27T16:50:19.701Z,17.52
2023-02-27T16:52:47.948Z,17.28
2023-02-27T16:55:16.743Z,17.12
2023-02-27T16:57:45.046Z,17.44
2023-02-27T17:00:14.556Z,17.71
2023-02-27T17:02:43.665Z,17.34
2023-02-27T17:05:11.976Z,17.54
2023-02-27T17:07:40.155Z,16.91
2023-02-27T17:10:09.486Z,16.80
2023-02-27T17:12:44.559Z,16.82
2023-02-27T17:15:14.198Z,16.77
2023-02-27T17:17:43.427Z,16.59
2023-02-27T17:20:12.845Z,16.52
2023-02-27T17:22:43.383Z,16.62
2023-02-27T17:25:11.910Z,16.67
2023-02-27T17:27:42.389Z,16.34
2023-02-27T17:30:11.588Z,16.53
2023-02-27T17:32:40.562Z,16.66
2023-02-27T17:35:09.314Z,16.64
2023-02-27T17:37:38.513Z,16.84
2023-02-27T17:40:08.343Z,16.95
2023-02-27T17:42:37.234Z,16.94
2023-02-27T17:45:06.905Z,16.72
2023-02-27T17:47:35.757Z,16.80
2023-02-27T17:50:05.024Z,16.80
2023-02-27T17:52:36.151Z,16.74
2023-02-27T17:55:05.981Z,16.41
2023-02-27T17:57:35.951Z,16.41
2023-02-27T18:00:05.691Z,15.94
2023-02-27T18:02:36.630Z,15.81
2023-02-27T18:05:06.007Z,15.69
2023-02-27T18:07:34.886Z,15.70
2023-02-27T18:10:05.569Z,15.94
2023-02-27T18:12:35.138Z,15.88
2023-02-27T18:15:07.206Z,15.63
2023-02-27T18:17:36.471Z,15.88
2023-02-27T18:20:06.654Z,16.05
2023-02-27T18:22:36.109Z,16.12
2023-02-27T18:25:05.567Z,16.10
2023-02-27T18:27:35.262Z,16.19
2023-02-27T18:30:04.581Z,16.33
2023-02-27T18:32:39.850Z,16.21
2023-02-27T18:35:08.992Z,16.19
2023-02-27T18:37:41.308Z,16.15
2023-02-27T18:40:12.011Z,16.13
2023-02-27T18:42:49.912Z,16.42
2023-02-27T18:45:20.222Z,16.57
2023-02-27T18:47:48.258Z,16.49
2023-02-27T18:50:17.892Z,16.42
2023-02-27T18:52:47.373Z,16.40
2023-02-27T18:55:17.445Z,16.33
2023-02-27T18:57:48.077Z,15.91
2023-02-27T19:00:16.600Z,15.30
2023-02-27T19:02:45.368Z,15.35
2023-02-27T19:05:14.751Z,15.47
2023-02-27T19:07:43.018Z,15.56
2023-02-27T19:10:12.005Z,15.78
2023-02-27T19:12:40.214Z,15.80
2023-02-27T19:15:11.134Z,15.76
2023-02-27T19:17:39.227Z,15.93
2023-02-27T19:20:14.544Z,16.03
2023-02-27T19:22:42.999Z,15.91
2023-02-27T19:25:11.165Z,15.69
2023-02-27T19:27:40.617Z,15.91
2023-02-27T19:30:10.906Z,15.86
2023-02-27T19:32:39.840Z,15.95
2023-02-27T19:35:14.985Z,15.55
2023-02-27T19:37:43.611Z,15.59
2023-02-27T19:40:13.816Z,15.49
2023-02-27T19:42:44.795Z,15.73
2023-02-27T19:45:12.986Z,15.60
2023-02-27T19:47:44.157Z,15.60
2023-02-27T19:50:12.273Z,15.88
2023-02-27T19:52:43.102Z,15.68
2023-02-27T19:55:12.299Z,15.94
2023-02-27T19:57:41.588Z,15.95
2023-02-27T20:00:13.384Z,15.67
2023-02-27T20:02:41.568Z,15.55
2023-02-27T20:05:12.060Z,15.50
2023-02-27T20:07:42.488Z,15.54
2023-02-27T20:10:14.623Z,15.58
2023-02-27T20:12:43.795Z,15.35
2023-02-27T20:15:15.289Z,15.57
2023-02-27T20:17:44.171Z,15.94
2023-02-27T20:20:13.546Z,15.89
2023-02-27T20:22:43.806Z,15.76
2023-02-27T20:25:12.061Z,15.89
2023-02-27T20:27:41.039Z,15.94
2023-02-27T20:30:11.362Z,16.03
2023-02-27T20:32:39.744Z,15.95
2023-02-27T20:35:08.642Z,16.04
2023-02-27T20:37:36.803Z,16.27
2023-02-27T20:40:08.429Z,16.12
2023-02-27T20:42:36.594Z,16.16
2023-02-27T20:45:05.987Z,16.04
2023-02-27T20:47:34.183Z,16.32
2023-02-27T20:50:02.429Z,16.03
2023-02-27T20:52:31.034Z,15.69
2023-02-27T20:54:59.149Z,15.88
2023-02-27T20:57:27.127Z,15.97
2023-02-27T20:59:55.344Z,15.68
2023-02-27T21:02:23.451Z,15.94
2023-02-27T21:04:53.397Z,16.10
2023-02-27T21:07:23.857Z,15.92
2023-02-27T21:09:52.205Z,15.72
2023-02-27T21:12:23.513Z,15.41
2023-02-27T21:14:52.152Z,15.21
2023-02-27T21:17:20.652Z,15.58
2023-02-27T21:19:52.369Z,15.86
2023-02-27T21:22:20.762Z,15.88
2023-02-27T21:24:52.078Z,16.08
2023-02-27T21:27:21.402Z,16.03
2023-02-27T21:29:50.611Z,16.39
2023-02-27T21:32:19.959Z,16.53
2023-02-27T21:34:48.039Z,16.50
2023-02-27T21:37:19.731Z,16.53
2023-02-27T21:39:52.596Z,16.59
2023-02-27T21:42:20.629Z,16.71
2023-02-27T21:44:49.454Z,16.80
2023-02-27T21:47:21.414Z,16.68
2023-02-27T21:49:51.531Z,16.23
2023-02-27T21:52:19.518Z,16.06
2023-02-27T21:54:48.602Z,16.43
2023-02-27T21:57:16.519Z,16.31
2023-02-27T21:59:45.865Z,16.22
2023-02-27T22:02:14.867Z,16.04
2023-02-27T22:04:43.952Z,15.91
2023-02-27T22:07:12.125Z,15.89
2023-02-27T22:09:45.390Z,15.62
2023-02-27T22:12:16.218Z,15.46
2023-02-27T22:14:45.985Z,15.40
2023-02-27T22:17:14.179Z,15.23
2023-02-27T22:19:42.731Z,15.34
2023-02-27T22:22:10.885Z,15.25
2023-02-27T22:24:41.946Z,15.02
2023-02-27T22:27:10.085Z,15.05
2023-02-27T22:29:38.814Z,15.38
2023-02-27T22:32:07.211Z,15.48
2023-02-27T22:34:35.764Z,15.54
2023-02-27T22:37:03.839Z,15.69
2023-02-27T22:39:32.568Z,15.71
2023-02-27T22:42:00.795Z,15.86
2023-02-27T22:44:29.289Z,16.05
2023-02-27T22:46:57.430Z,16.06
2023-02-27T22:49:28.603Z,15.57
2023-02-27T22:51:57.163Z,15.92
2023-02-27T22:54:25.349Z,16.04
2023-02-27T22:56:56.339Z,15.85
2023-02-27T22:59:30.633Z,15.16
2023-02-27T23:01:59.364Z,14.88
2023-02-27T23:04:28.288Z,14.82
2023-02-27T23:06:56.662Z,14.96
2023-02-27T23:09:26.285Z,15.02
2023-02-27T23:11:55.157Z,14.99
2023-02-27T23:14:23.680Z,14.81
2023-02-27T23:16:51.788Z,15.04
2023-02-27T23:19:21.028Z,15.32
2023-02-27T23:21:54.712Z,15.25
2023-02-27T23:24:22.801Z,15.41
2023-02-27T23:26:52.639Z,15.42
2023-02-27T23:29:20.811Z,15.17
2023-02-27T23:31:48.984Z,15.22
2023-02-27T23:34:18.265Z,15.36
2023-02-27T23:36:46.410Z,15.01
2023-02-27T23:39:14.488Z,14.78
2023-02-27T23:41:43.766Z,14.73
2023-02-27T23:44:11.868Z,14.68
2023-02-27T23:46:40.755Z,14.43
2023-02-27T23:49:09.447Z,14.26
2023-02-27T23:51:37.619Z,13.98
2023-02-27T23:54:06.304Z,14.43
2023-02-27T23:56:34.788Z,14.76
2023-02-27T23:59:05.109Z,14.46
